createdAt,value
2019-04-05T00:02:19.006Z,13.63
2019-04-05T00:04:45.505Z,13.80
2019-04-05T00:07:12.069Z,14.00
2019-04-05T00:09:38.485Z,13.13
2019-04-05T00:12:04.913Z,12.23
2019-04-05T00:14:31.301Z,15.27
2019-04-05T00:16:57.546Z,14.07
2019-04-05T00:19:23.793Z,14.97
2019-04-05T00:21:50.054Z,15.00
2019-04-05T00:24:16.411Z,14.47
2019-04-05T00:26:42.758Z,15.47
2019-04-05T00:29:09.062Z,16.03
2019-04-05T00:31:35.662Z,14.90
2019-04-05T00:34:02.238Z,15.30
2019-04-05T00:36:28.477Z,16.20
2019-04-05T00:38:54.947Z,17.00
2019-04-05T00:41:22.066Z,16.30
2019-04-05T00:43:48.723Z,15.87
2019-04-05T00:46:15.177Z,15.93
2019-04-05T00:48:41.443Z,14.93
2019-04-05T00:51:07.686Z,15.50
2019-04-05T00:53:34.050Z,17.37
2019-04-05T00:56:00.644Z,16.67
2019-04-05T00:58:27.365Z,15.93
2019-04-05T01:00:53.697Z,15.80
2019-04-05T01:03:19.966Z,15.87
2019-04-05T01:05:46.805Z,17.87
2019-04-05T01:08:13.442Z,17.77
2019-04-05T01:10:40.162Z,16.47
2019-04-05T01:13:07.413Z,17.70
2019-04-05T01:15:40.856Z,18.20
2019-04-05T01:18:02.122Z,16.57
2019-04-05T01:20:32.168Z,15.50
2019-04-05T01:22:59.008Z,14.53
2019-04-05T01:25:26.166Z,15.70
2019-04-05T01:27:52.570Z,16.83
2019-04-05T01:30:19.061Z,16.70
2019-04-05T01:32:46.002Z,17.70
2019-04-05T01:35:12.738Z,17.53
2019-04-05T01:37:39.181Z,17.10
2019-04-05T01:40:08.360Z,18.23
2019-04-05T01:42:36.568Z,14.53
2019-04-05T01:45:05.719Z,17.13
2019-04-05T01:47:32.103Z,17.33
2019-04-05T01:49:58.445Z,13.53
2019-04-05T01:52:24.911Z,16.57
2019-04-05T01:54:51.372Z,13.57
2019-04-05T01:57:17.784Z,17.20
2019-04-05T01:59:44.425Z,16.60
2019-04-05T02:02:10.698Z,17.00
2019-04-05T02:04:36.987Z,18.13
2019-04-05T02:07:04.431Z,13.50
2019-04-05T02:09:30.931Z,17.67
2019-04-05T02:11:57.438Z,17.00
2019-04-05T02:14:23.894Z,15.60
2019-04-05T02:16:50.345Z,14.97
2019-04-05T02:19:17.001Z,17.83
2019-04-05T02:21:43.611Z,17.77
2019-04-05T02:24:10.099Z,19.80
2019-04-05T02:26:36.908Z,12.80
2019-04-05T02:29:03.384Z,11.97
2019-04-05T02:31:29.889Z,16.33
2019-04-05T02:33:56.738Z,15.17
2019-04-05T02:36:23.647Z,14.90
2019-04-05T02:38:50.407Z,14.90
2019-04-05T02:41:18.643Z,11.83
2019-04-05T02:43:46.065Z,12.57
2019-04-05T02:46:23.440Z,13.77
2019-04-05T02:48:44.161Z,14.90
2019-04-05T02:51:14.450Z,13.77
2019-04-05T02:53:42.219Z,14.07
2019-04-05T02:56:09.154Z,13.37
2019-04-05T02:58:36.365Z,12.20
2019-04-05T03:01:03.418Z,10.57
2019-04-05T03:03:30.192Z,13.63
2019-04-05T03:05:56.867Z,11.07
2019-04-05T03:08:23.326Z,10.10
2019-04-05T03:10:52.813Z,14.13
2019-04-05T03:13:22.447Z,13.40
2019-04-05T03:15:49.421Z,12.40
2019-04-05T03:18:17.100Z,13.10
2019-04-05T03:20:43.881Z,13.13
2019-04-05T03:23:10.608Z,10.40
2019-04-05T03:25:37.299Z,12.70
2019-04-05T03:28:03.765Z,12.20
2019-04-05T03:30:31.618Z,11.63
2019-04-05T03:32:58.073Z,12.00
2019-04-05T03:35:24.804Z,11.60
2019-04-05T03:37:51.621Z,12.13
2019-04-05T03:40:18.260Z,13.53
2019-04-05T03:42:45.104Z,11.63
2019-04-05T03:45:11.721Z,13.70
2019-04-05T03:47:38.650Z,11.13
2019-04-05T03:50:05.741Z,11.40
2019-04-05T03:52:32.212Z,13.27
2019-04-05T03:54:58.688Z,11.33
2019-04-05T03:57:25.257Z,12.60
2019-04-05T03:59:51.702Z,12.50
2019-04-05T04:02:18.090Z,11.63
2019-04-05T04:04:44.559Z,11.13
2019-04-05T04:07:12.310Z,11.73
2019-04-05T04:09:40.233Z,12.17
2019-04-05T04:12:06.873Z,10.17
2019-04-05T04:14:34.431Z,10.80
2019-04-05T04:17:12.272Z,12.00
2019-04-05T04:19:29.784Z,11.77
2019-04-05T04:22:19.497Z,12.30
2019-04-05T04:24:46.308Z,10.77
2019-04-05T04:27:12.916Z,10.83
2019-04-05T04:29:39.372Z,10.63
2019-04-05T04:32:06.509Z,10.97
2019-04-05T04:34:33.160Z,11.93
2019-04-05T04:37:00.916Z,12.63
2019-04-05T04:39:27.457Z,10.20
2019-04-05T04:41:55.356Z,12.47
2019-04-05T04:44:21.988Z,11.20
2019-04-05T04:46:49.164Z,13.13
2019-04-05T04:49:15.831Z,11.57
2019-04-05T04:51:42.519Z,11.83
2019-04-05T04:54:09.306Z,11.20
2019-04-05T04:56:36.259Z,12.00
2019-04-05T04:59:02.864Z,11.60
2019-04-05T05:01:29.328Z,11.43
2019-04-05T05:03:56.160Z,9.63
2019-04-05T05:06:22.979Z,12.80
2019-04-05T05:08:49.835Z,11.43
2019-04-05T05:11:17.047Z,11.90
2019-04-05T05:13:43.639Z,12.37
2019-04-05T05:16:10.310Z,11.97
2019-04-05T05:18:37.737Z,11.60
2019-04-05T05:21:05.011Z,14.40
2019-04-05T05:23:31.697Z,11.17
2019-04-05T05:25:58.483Z,11.97
2019-04-05T05:28:25.269Z,9.77
2019-04-05T05:30:51.634Z,12.67
2019-04-05T05:33:18.275Z,13.10
2019-04-05T05:35:46.749Z,13.07
2019-04-05T05:38:13.393Z,11.40
2019-04-05T05:40:39.742Z,13.43
2019-04-05T05:43:06.117Z,12.23
2019-04-05T05:45:32.522Z,11.70
2019-04-05T05:48:00.036Z,15.20
2019-04-05T05:50:27.163Z,12.63
2019-04-05T05:52:54.001Z,9.30
2019-04-05T05:55:20.355Z,11.50
2019-04-05T05:57:46.798Z,10.23
2019-04-05T06:00:14.764Z,13.63
2019-04-05T06:02:41.215Z,13.63
2019-04-05T06:05:07.815Z,12.53
2019-04-05T06:07:36.084Z,12.33
2019-04-05T06:10:05.211Z,16.10
2019-04-05T06:12:32.562Z,16.53
2019-04-05T06:14:58.841Z,12.53
2019-04-05T06:17:25.213Z,11.17
2019-04-05T06:19:52.694Z,16.17
2019-04-05T06:22:19.064Z,13.30
2019-04-05T06:24:45.343Z,13.90
2019-04-05T06:27:11.956Z,11.87
2019-04-05T06:29:38.464Z,13.20
2019-04-05T06:32:05.116Z,14.77
2019-04-05T06:34:31.494Z,14.37
2019-04-05T06:36:58.007Z,13.37
2019-04-05T06:39:24.838Z,13.30
2019-04-05T06:41:51.203Z,11.20
2019-04-05T06:44:17.574Z,11.80
2019-04-05T06:46:43.923Z,11.03
2019-04-05T06:49:10.212Z,12.90
2019-04-05T06:51:36.548Z,13.10
2019-04-05T06:54:03.462Z,14.07
2019-04-05T06:56:29.816Z,9.10
2019-04-05T06:58:56.171Z,11.93
2019-04-05T07:01:22.678Z,10.80
2019-04-05T07:03:49.031Z,12.67
2019-04-05T07:06:15.412Z,9.80
2019-04-05T07:08:53.001Z,10.93
2019-04-05T07:11:10.625Z,9.50
2019-04-05T07:13:37.028Z,15.47
2019-04-05T07:16:03.636Z,14.13
2019-04-05T07:18:35.547Z,14.13
2019-04-05T07:20:58.244Z,9.33
2019-04-05T07:23:24.828Z,10.20
2019-04-05T07:25:51.218Z,12.10
2019-04-05T07:28:17.620Z,11.10
2019-04-05T07:30:44.305Z,10.33
2019-04-05T07:33:10.942Z,10.13
2019-04-05T07:35:37.308Z,12.33
2019-04-05T07:38:03.916Z,9.70
2019-04-05T07:40:30.179Z,9.93
2019-04-05T07:42:56.812Z,10.40
2019-04-05T07:45:23.107Z,12.67
2019-04-05T07:47:49.532Z,10.00
2019-04-05T07:50:16.759Z,10.10
2019-04-05T07:52:43.580Z,9.87
2019-04-05T07:55:10.395Z,9.73
2019-04-05T07:57:36.759Z,11.30
2019-04-05T08:00:07.949Z,10.97
2019-04-05T08:02:35.559Z,10.70
2019-04-05T08:05:06.207Z,10.00
2019-04-05T08:07:35.150Z,9.23
2019-04-05T08:10:03.080Z,10.50
2019-04-05T08:12:29.733Z,10.10
2019-04-05T08:14:56.794Z,9.90
2019-04-05T08:17:23.143Z,8.63
2019-04-05T08:19:49.432Z,11.33
2019-04-05T08:22:15.904Z,8.83
2019-04-05T08:24:42.479Z,9.50
2019-04-05T08:27:08.783Z,9.27
2019-04-05T08:29:35.153Z,12.43
2019-04-05T08:32:13.609Z,10.10
2019-04-05T08:34:29.594Z,10.93
2019-04-05T08:36:55.982Z,11.50
2019-04-05T08:39:22.588Z,9.87
2019-04-05T08:41:48.983Z,11.03
2019-04-05T08:44:15.380Z,9.47
2019-04-05T08:46:41.996Z,9.53
2019-04-05T08:49:11.055Z,10.77
2019-04-05T08:51:36.577Z,8.60
2019-04-05T08:54:03.625Z,9.87
2019-04-05T08:56:29.977Z,9.93
2019-04-05T08:58:56.391Z,8.80
2019-04-05T09:01:23.008Z,8.20
2019-04-05T09:03:49.507Z,8.37
2019-04-05T09:06:16.141Z,10.77
2019-04-05T09:08:42.573Z,8.27
2019-04-05T09:11:08.970Z,9.30
2019-04-05T09:13:36.653Z,10.73
2019-04-05T09:16:03.076Z,8.80
2019-04-05T09:18:29.426Z,10.93
2019-04-05T09:20:55.793Z,11.27
2019-04-05T09:23:22.467Z,10.47
2019-04-05T09:25:48.838Z,8.67
2019-04-05T09:28:15.207Z,8.43
2019-04-05T09:30:41.572Z,8.57
2019-04-05T09:33:07.929Z,8.87
2019-04-05T09:35:34.187Z,9.30
2019-04-05T09:38:00.486Z,10.20
2019-04-05T09:40:26.888Z,9.63
2019-04-05T09:42:53.233Z,9.27
2019-04-05T09:45:19.720Z,9.10
2019-04-05T09:47:46.337Z,10.50
2019-04-05T09:50:13.219Z,9.53
2019-04-05T09:52:40.187Z,9.63
2019-04-05T09:55:06.873Z,10.13
2019-04-05T09:57:33.492Z,7.97
2019-04-05T09:59:59.760Z,10.03
2019-04-05T10:02:26.147Z,9.63
2019-04-05T10:04:52.604Z,8.03
2019-04-05T10:07:19.080Z,8.20
2019-04-05T10:09:45.740Z,8.23
2019-04-05T10:12:12.063Z,8.60
2019-04-05T10:14:38.466Z,8.70
2019-04-05T10:17:04.813Z,9.70
2019-04-05T10:19:31.064Z,9.17
2019-04-05T10:21:57.348Z,10.43
2019-04-05T10:24:23.699Z,8.93
2019-04-05T10:26:50.371Z,9.93
2019-04-05T10:29:16.823Z,10.00
2019-04-05T10:31:43.432Z,9.73
2019-04-05T10:34:09.930Z,9.77
2019-04-05T10:36:36.604Z,9.43
2019-04-05T10:39:07.604Z,9.73
2019-04-05T10:41:34.040Z,10.10
2019-04-05T10:44:00.692Z,10.40
2019-04-05T10:46:28.351Z,9.53
2019-04-05T10:48:54.707Z,11.13
2019-04-05T10:51:21.264Z,10.10
2019-04-05T10:53:47.612Z,11.10
2019-04-05T10:56:13.984Z,9.50
2019-04-05T10:58:40.612Z,9.87
2019-04-05T11:01:07.117Z,10.00
2019-04-05T11:03:33.513Z,10.90
2019-04-05T11:05:59.876Z,10.17
2019-04-05T11:08:26.274Z,8.23
2019-04-05T11:10:53.030Z,9.90
2019-04-05T11:13:19.565Z,8.63
2019-04-05T11:15:46.035Z,9.17
2019-04-05T11:18:12.528Z,10.03
2019-04-05T11:20:40.139Z,9.40
2019-04-05T11:23:06.673Z,9.40
2019-04-05T11:25:33.261Z,8.97
2019-04-05T11:27:59.637Z,9.00
2019-04-05T11:30:38.546Z,9.70
2019-04-05T11:33:04.870Z,10.73
2019-04-05T11:35:31.369Z,9.93
2019-04-05T11:37:57.728Z,11.73
2019-04-05T11:40:24.271Z,13.43
2019-04-05T11:42:51.316Z,9.43
2019-04-05T11:45:17.684Z,10.87
2019-04-05T11:47:44.149Z,10.17
2019-04-05T11:50:12.472Z,9.33
2019-04-05T11:52:38.978Z,9.77
2019-04-05T11:55:06.645Z,8.53
2019-04-05T11:57:33.265Z,8.90
2019-04-05T11:59:59.942Z,9.07
2019-04-05T12:02:37.160Z,9.73
2019-04-05T12:05:05.268Z,8.47
2019-04-05T12:07:31.529Z,8.93
2019-04-05T12:09:59.240Z,9.13
2019-04-05T12:12:25.840Z,9.40
2019-04-05T12:14:52.229Z,8.63
2019-04-05T12:17:18.671Z,7.90
2019-04-05T12:19:45.341Z,8.30
2019-04-05T12:22:11.721Z,8.43
2019-04-05T12:24:38.091Z,7.80
2019-04-05T12:27:04.800Z,9.03
2019-04-05T12:29:31.836Z,9.17
2019-04-05T12:31:58.527Z,9.03
2019-04-05T12:34:25.161Z,9.63
2019-04-05T12:36:52.591Z,9.10
2019-04-05T12:39:19.569Z,8.47
2019-04-05T12:41:45.914Z,8.30
2019-04-05T12:44:15.127Z,9.03
2019-04-05T12:46:40.622Z,9.73
2019-04-05T12:49:07.018Z,9.10
2019-04-05T12:51:33.324Z,9.13
2019-04-05T12:54:00.003Z,9.63
2019-04-05T12:56:27.331Z,9.07
2019-04-05T12:58:56.047Z,9.30
2019-04-05T13:01:22.272Z,9.53
2019-04-05T13:03:51.130Z,9.17
2019-04-05T13:06:16.793Z,9.70
2019-04-05T13:08:43.135Z,9.77
2019-04-05T13:11:09.462Z,9.33
2019-04-05T13:13:36.088Z,10.00
2019-04-05T13:16:02.705Z,8.53
2019-04-05T13:18:31.583Z,10.40
2019-04-05T13:20:58.297Z,8.60
2019-04-05T13:23:25.764Z,9.63
2019-04-05T13:25:52.253Z,9.47
2019-04-05T13:28:19.505Z,9.50
2019-04-05T13:30:48.254Z,10.70
2019-04-05T13:33:14.585Z,10.37
2019-04-05T13:35:40.951Z,9.80
2019-04-05T13:38:08.600Z,10.87
2019-04-05T13:40:35.008Z,10.60
2019-04-05T13:43:01.959Z,9.87
2019-04-05T13:45:29.404Z,10.03
2019-04-05T13:47:55.756Z,9.87
2019-04-05T13:50:22.449Z,9.00
2019-04-05T13:52:49.112Z,9.87
2019-04-05T13:55:15.465Z,9.87
2019-04-05T13:57:41.780Z,10.83
2019-04-05T14:00:09.615Z,10.70
2019-04-05T14:02:36.020Z,9.57
2019-04-05T14:05:04.093Z,8.97
2019-04-05T14:07:30.557Z,10.13
2019-04-05T14:09:57.207Z,9.47
2019-04-05T14:12:23.485Z,9.77
2019-04-05T14:14:51.575Z,11.23
2019-04-05T14:17:18.115Z,10.17
2019-04-05T14:19:46.794Z,10.10
2019-04-05T14:22:13.010Z,9.37
2019-04-05T14:24:39.392Z,9.87
2019-04-05T14:27:06.217Z,9.73
2019-04-05T14:29:33.408Z,10.57
2019-04-05T14:32:19.153Z,10.60
2019-04-05T14:34:28.387Z,10.00
2019-04-05T14:36:54.936Z,9.73
2019-04-05T14:39:21.577Z,12.27
2019-04-05T14:41:48.228Z,9.53
2019-04-05T14:44:15.119Z,9.63
2019-04-05T14:46:41.548Z,10.30
2019-04-05T14:49:07.892Z,10.00
2019-04-05T14:51:34.288Z,10.50
2019-04-05T14:54:01.706Z,10.00
2019-04-05T14:56:29.231Z,10.03
2019-04-05T14:58:56.112Z,10.63
2019-04-05T15:01:22.489Z,11.00
2019-04-05T15:03:48.743Z,10.50
2019-04-05T15:06:15.138Z,10.17
2019-04-05T15:08:41.796Z,10.90
2019-04-05T15:11:10.908Z,10.53
2019-04-05T15:13:36.675Z,10.83
2019-04-05T15:16:03.277Z,10.33
2019-04-05T15:18:29.928Z,10.90
2019-04-05T15:20:56.213Z,11.77
2019-04-05T15:23:22.937Z,11.93
2019-04-05T15:25:49.906Z,12.03
2019-04-05T15:28:16.867Z,13.00
2019-04-05T15:30:43.363Z,12.43
2019-04-05T15:33:09.648Z,12.30
2019-04-05T15:35:36.272Z,13.10
2019-04-05T15:38:02.748Z,11.53
2019-04-05T15:40:31.068Z,12.37
2019-04-05T15:42:58.276Z,14.37
2019-04-05T15:45:24.676Z,12.83
2019-04-05T15:47:52.729Z,13.47
2019-04-05T15:50:21.699Z,13.07
2019-04-05T15:52:47.889Z,13.20
2019-04-05T15:55:14.563Z,12.47
2019-04-05T15:57:41.125Z,13.27
2019-04-05T16:00:11.004Z,12.60
2019-04-05T16:02:37.834Z,13.13
2019-04-05T16:05:06.212Z,13.47
2019-04-05T16:07:32.661Z,12.27
2019-04-05T16:09:59.050Z,13.33
2019-04-05T16:12:25.661Z,13.30
2019-04-05T16:14:52.222Z,12.77
2019-04-05T16:17:18.544Z,13.37
2019-04-05T16:19:44.933Z,13.80
2019-04-05T16:22:11.259Z,11.57
2019-04-05T16:24:37.646Z,10.43
2019-04-05T16:27:04.108Z,13.07
2019-04-05T16:29:30.848Z,14.77
2019-04-05T16:31:57.206Z,12.73
2019-04-05T16:34:24.318Z,15.57
2019-04-05T16:36:50.720Z,12.60
2019-04-05T16:39:18.819Z,12.10
2019-04-05T16:41:45.436Z,14.10
2019-04-05T16:44:12.075Z,13.23
2019-04-05T16:46:38.583Z,15.13
2019-04-05T16:49:05.179Z,14.60
2019-04-05T16:51:31.593Z,17.05
2019-04-05T16:53:58.967Z,16.43
2019-04-05T16:56:25.476Z,14.70
2019-04-05T16:58:52.133Z,14.93
2019-04-05T17:01:26.891Z,16.20
2019-04-05T17:03:46.637Z,15.90
2019-04-05T17:06:13.297Z,16.50
2019-04-05T17:08:39.777Z,20.03
2019-04-05T17:11:06.405Z,16.13
2019-04-05T17:13:32.840Z,15.13
2019-04-05T17:15:59.372Z,15.07
2019-04-05T17:18:26.022Z,13.93
2019-04-05T17:20:52.417Z,14.07
2019-04-05T17:23:18.777Z,13.60
2019-04-05T17:25:45.524Z,13.37
2019-04-05T17:28:11.796Z,15.17
2019-04-05T17:30:38.178Z,15.37
2019-04-05T17:33:04.670Z,14.40
2019-04-05T17:35:31.123Z,15.60
2019-04-05T17:37:57.515Z,13.23
2019-04-05T17:40:24.046Z,14.13
2019-04-05T17:42:50.553Z,14.60
2019-04-05T17:45:17.015Z,14.33
2019-04-05T17:47:43.743Z,14.60
2019-04-05T17:50:12.341Z,15.73
2019-04-05T17:52:38.778Z,14.43
2019-04-05T17:55:05.552Z,17.13
2019-04-05T17:57:32.037Z,15.17
2019-04-05T17:59:58.832Z,16.43
2019-04-05T18:02:26.313Z,14.80
2019-04-05T18:04:53.051Z,15.00
2019-04-05T18:07:19.465Z,15.20
2019-04-05T18:09:45.879Z,13.80
2019-04-05T18:12:13.468Z,13.70
2019-04-05T18:14:39.866Z,13.03
2019-04-05T18:17:06.164Z,12.00
2019-04-05T18:19:32.507Z,12.73
2019-04-05T18:21:58.884Z,12.83
2019-04-05T18:24:25.504Z,16.60
2019-04-05T18:26:52.244Z,16.83
2019-04-05T18:29:18.553Z,13.80
2019-04-05T18:31:45.233Z,12.10
2019-04-05T18:34:12.904Z,11.33
2019-04-05T18:36:39.563Z,10.10
2019-04-05T18:39:06.000Z,8.83
2019-04-05T18:41:32.607Z,8.87
2019-04-05T18:43:58.980Z,10.03
2019-04-05T18:46:26.549Z,9.10
2019-04-05T18:48:53.055Z,12.50
2019-04-05T18:51:19.413Z,10.57
2019-04-05T18:53:46.091Z,15.00
2019-04-05T18:56:14.418Z,12.40
2019-04-05T18:58:40.808Z,10.50
2019-04-05T19:01:07.100Z,10.57
2019-04-05T19:03:33.576Z,11.47
2019-04-05T19:06:00.033Z,9.00
2019-04-05T19:08:38.688Z,9.20
2019-04-05T19:10:54.768Z,7.73
2019-04-05T19:13:21.420Z,7.20
2019-04-05T19:15:48.040Z,6.10
2019-04-05T19:18:14.444Z,6.57
2019-04-05T19:20:40.886Z,6.47
2019-04-05T19:23:07.666Z,5.57
2019-04-05T19:25:34.111Z,7.53
2019-04-05T19:28:00.473Z,7.03
2019-04-05T19:50:14.364Z,6.67
2019-04-05T19:52:42.070Z,7.20
2019-04-05T19:55:08.906Z,8.17
2019-04-05T19:57:35.311Z,7.20
2019-04-05T20:00:05.690Z,7.27
2019-04-05T20:02:32.192Z,8.80
2019-04-05T20:04:58.685Z,7.80
2019-04-05T20:07:25.039Z,8.77
2019-04-05T20:09:51.598Z,11.87
2019-04-05T20:12:18.212Z,11.23
2019-04-05T20:14:44.933Z,10.27
2019-04-05T20:17:11.348Z,13.80
2019-04-05T20:19:38.392Z,11.20
2019-04-05T20:22:05.057Z,9.53
2019-04-05T20:24:33.813Z,14.20
2019-04-05T20:27:00.274Z,15.90
2019-04-05T20:29:27.629Z,10.00
2019-04-05T20:31:54.167Z,8.20
2019-04-05T20:34:20.829Z,8.17
2019-04-05T20:36:47.441Z,7.90
2019-04-05T20:39:14.088Z,7.63
2019-04-05T20:41:40.347Z,7.50
2019-04-05T20:44:08.272Z,8.00
2019-04-05T20:46:34.532Z,6.67
2019-04-05T20:49:00.858Z,7.50
2019-04-05T20:51:27.490Z,7.57
2019-04-05T20:53:53.888Z,10.10
2019-04-05T20:56:20.275Z,6.33
2019-04-05T20:58:46.646Z,8.43
2019-04-05T21:01:13.151Z,7.20
2019-04-05T21:03:39.786Z,7.97
2019-04-05T21:06:06.064Z,6.50
2019-04-05T21:08:32.672Z,6.17
2019-04-05T21:10:58.959Z,6.30
2019-04-05T21:13:25.324Z,6.83
2019-04-05T21:15:53.623Z,7.20
2019-04-05T21:18:20.269Z,9.13
2019-04-05T21:20:47.044Z,7.40
2019-04-05T21:23:13.524Z,7.70
2019-04-05T21:25:40.092Z,7.37
2019-04-05T21:28:06.469Z,8.57
2019-04-05T21:30:32.848Z,11.07
2019-04-05T21:32:59.196Z,12.03
2019-04-05T21:35:25.594Z,9.30
2019-04-05T21:37:52.274Z,12.77
2019-04-05T21:40:18.624Z,10.67
2019-04-05T21:42:44.977Z,6.73
2019-04-05T21:45:11.468Z,7.60
2019-04-05T21:47:37.813Z,9.47
2019-04-05T21:50:08.624Z,8.10
2019-04-05T21:52:35.252Z,7.47
2019-04-05T21:55:02.496Z,8.33
2019-04-05T21:57:30.048Z,7.07
2019-04-05T21:59:56.498Z,6.33
2019-04-05T22:02:23.176Z,6.17
2019-04-05T22:04:50.581Z,7.60
2019-04-05T22:07:17.251Z,6.63
2019-04-05T22:09:43.600Z,7.80
2019-04-05T22:12:09.976Z,7.70
2019-04-05T22:14:36.356Z,7.10
2019-04-05T22:17:03.100Z,10.20
2019-04-05T22:19:29.461Z,6.53
2019-04-05T22:21:56.103Z,7.40
2019-04-05T22:24:22.659Z,8.27
2019-04-05T22:26:49.192Z,6.80
2019-04-05T22:29:15.715Z,8.57
2019-04-05T22:31:42.100Z,7.87
2019-04-05T22:34:08.640Z,6.80
2019-04-05T22:36:35.004Z,7.50
2019-04-05T22:39:01.256Z,9.03
2019-04-05T22:41:29.384Z,7.23
2019-04-05T22:43:55.957Z,6.70
2019-04-05T22:46:22.312Z,5.47
2019-04-05T22:48:48.694Z,5.27
2019-04-05T22:51:15.325Z,16.63
2019-04-05T22:53:41.781Z,13.73
2019-04-05T22:56:08.179Z,12.40
2019-04-05T22:58:34.529Z,10.77
2019-04-05T23:01:01.181Z,14.40
2019-04-05T23:03:27.620Z,10.03
2019-04-05T23:05:54.010Z,8.23
2019-04-05T23:08:20.535Z,7.40
2019-04-05T23:10:47.187Z,6.93
2019-04-05T23:13:13.557Z,5.83
2019-04-05T23:15:39.853Z,7.23
2019-04-05T23:18:06.224Z,6.97
2019-04-05T23:20:32.640Z,12.13
2019-04-05T23:22:59.271Z,7.10
2019-04-05T23:25:25.541Z,7.50
2019-04-05T23:27:52.269Z,8.77
2019-04-05T23:30:19.564Z,9.17
2019-04-05T23:32:46.863Z,8.80
2019-04-05T23:35:13.155Z,7.77
2019-04-05T23:37:39.629Z,13.73
2019-04-05T23:40:06.475Z,11.10
2019-04-05T23:42:33.018Z,9.27
2019-04-05T23:44:59.356Z,10.27
2019-04-05T23:47:26.080Z,9.27
2019-04-05T23:49:52.678Z,8.00
2019-04-05T23:52:19.989Z,7.23
2019-04-05T23:54:46.363Z,6.90
2019-04-05T23:57:13.177Z,7.20
2019-04-05T23:59:39.557Z,7.77
